Time;durP1;ratioP1;P1;durP2;ratioP2;P2;SDS_P1;SDS_P2;PMS_P1;PMS_P2;Temp;Humidity;BMP_temperature;BMP_pressure;BME280_temperature;BME280_humidity;BME280_pressure;Samples;Min_cycle;Max_cycle;Signal;HPM_P1;HPM_P2
2022/05/17 00:00:48;;;;;;;;;3.75;3.75;;;;;22.17;54.27;101356.56;5086766;27;45469;-78
2022/05/17 00:03:15;;;;;;;;;5.50;5.50;;;;;22.21;54.70;101360.72;5085137;27;45543;-79
2022/05/17 00:05:41;;;;;;;;;5.00;5.00;;;;;22.24;54.46;101365.00;5090476;27;45386;-80
2022/05/17 00:08:08;;;;;;;;;3.25;3.25;;;;;22.20;54.77;101355.41;5087335;27;45413;-80
2022/05/17 00:10:33;;;;;;;;;3.50;3.50;;;;;22.13;53.97;101350.59;5082526;27;47260;-80
2022/05/17 00:12:58;;;;;;;;;5.00;5.00;;;;;22.16;54.29;101346.72;5092162;27;47349;-80
2022/05/17 00:15:24;;;;;;;;;4.50;4.50;;;;;22.22;54.65;101358.84;5082183;27;45530;-79
2022/05/17 00:17:52;;;;;;;;;4.25;4.00;;;;;22.24;54.44;101362.28;5085581;27;45548;-78
2022/05/17 00:20:18;;;;;;;;;4.50;4.50;;;;;22.23;54.48;101360.59;5086253;27;45735;-78
2022/05/17 00:22:43;;;;;;;;;5.00;4.00;;;;;22.20;54.16;101352.69;5089442;27;45501;-79
2022/05/17 00:25:11;;;;;;;;;5.25;5.25;;;;;22.21;54.73;101360.72;5087931;27;45641;-75
2022/05/17 00:27:37;;;;;;;;;6.00;5.00;;;;;22.20;54.45;101359.03;5088196;27;45452;-78
2022/05/17 00:30:05;;;;;;;;;3.00;3.00;;;;;22.02;54.55;101333.63;5084716;27;45408;-78
2022/05/17 00:32:30;;;;;;;;;6.25;4.75;;;;;22.12;54.79;101345.28;5086040;27;45376;-78
2022/05/17 00:34:55;;;;;;;;;4.50;4.00;;;;;22.16;54.45;101354.00;5091373;27;45345;-78
2022/05/17 00:37:21;;;;;;;;;6.00;4.50;;;;;22.12;55.25;101348.84;5089071;27;45429;-78
2022/05/17 00:39:46;;;;;;;;;3.75;3.75;;;;;22.11;54.76;101346.31;5086274;27;47187;-78
2022/05/17 00:42:12;;;;;;;;;5.25;3.00;;;;;22.13;54.90;101347.03;5090195;27;45466;-78
2022/05/17 00:44:43;;;;;;;;;4.50;4.50;;;;;22.08;55.37;101343.88;5089217;27;56274;-78
2022/05/17 00:47:13;;;;;;;;;5.00;4.25;;;;;22.07;55.13;101353.03;5085478;27;45495;-78
2022/05/17 00:50:13;;;;;;;;;5.00;4.00;;;;;22.04;55.34;101350.59;5081858;27;45682;-78
2022/05/17 00:52:44;;;;;;;;;6.00;5.00;;;;;21.99;55.06;101342.06;5079708;27;45535;-80
2022/05/17 00:55:17;;;;;;;;;4.00;4.00;;;;;21.97;55.53;101344.06;5087818;27;45414;-80
2022/05/17 00:58:04;;;;;;;;;3.00;3.00;;;;;21.92;55.12;101333.66;5092258;27;45532;-80
2022/05/17 01:00:36;;;;;;;;;2.75;2.75;;;;;21.75;55.51;101327.09;5091103;27;46996;-79
2022/05/17 01:03:06;;;;;;;;;6.50;5.50;;;;;21.86;55.82;101345.06;5086683;27;45403;-79
2022/05/17 01:05:37;;;;;;;;;5.00;4.50;;;;;21.82;55.72;101344.50;5093079;27;45609;-81
2022/05/17 01:08:03;;;;;;;;;6.25;4.25;;;;;21.68;56.53;101329.53;5084415;27;45480;-79
2022/05/17 01:10:30;;;;;;;;;4.00;4.00;;;;;21.77;56.65;101343.19;5090728;27;46489;-79
2022/05/17 01:15:42;;;;;;;;;4.75;3.00;;;;;21.73;56.40;101330.97;5083734;27;45457;-76
2022/05/17 01:18:08;;;;;;;;;4.00;4.00;;;;;21.70;56.10;101330.25;5089336;27;45644;-78
2022/05/17 01:20:34;;;;;;;;;5.25;4.00;;;;;21.70;56.26;101332.97;5084844;27;45506;-78
2022/05/17 01:23:00;;;;;;;;;4.00;3.50;;;;;21.64;55.97;101328.09;5088229;27;47504;-78
2022/05/17 01:25:27;;;;;;;;;3.75;3.75;;;;;21.65;56.09;101326.28;5088873;27;45510;-78
2022/05/17 01:28:01;;;;;;;;;7.25;6.50;;;;;21.61;56.28;101319.41;5088619;27;45342;-79
2022/05/17 01:30:28;;;;;;;;;6.50;5.25;;;;;21.61;56.60;101325.69;5091414;27;45992;-79
2022/05/17 01:32:54;;;;;;;;;5.75;5.75;;;;;21.56;56.71;101319.00;5082073;27;45421;-79
2022/05/17 01:35:19;;;;;;;;;5.75;4.50;;;;;21.47;56.70;101310.72;5087232;27;45668;-79
2022/05/17 01:37:48;;;;;;;;;5.00;5.00;;;;;21.52;56.74;101315.72;5092150;27;48689;-79
2022/05/17 01:40:14;;;;;;;;;7.50;7.50;;;;;21.46;56.51;101322.56;5084778;27;46995;-80
2022/05/17 01:42:39;;;;;;;;;6.25;5.25;;;;;21.52;56.66;101328.41;5091857;27;45736;-79
2022/05/17 01:45:06;;;;;;;;;6.00;5.00;;;;;21.33;56.79;101296.72;5082440;27;45526;-80
2022/05/17 01:47:31;;;;;;;;;5.50;5.50;;;;;21.52;56.16;101328.41;5087342;27;45324;-79
2022/05/17 01:49:57;;;;;;;;;5.50;5.50;;;;;21.48;56.79;101326.00;5082379;27;46317;-79
2022/05/17 01:52:22;;;;;;;;;7.25;5.50;;;;;21.52;56.35;101331.97;5085418;27;45623;-80
2022/05/17 01:54:48;;;;;;;;;6.00;6.00;;;;;21.46;56.47;101314.44;5084595;27;45604;-79
2022/05/17 01:57:13;;;;;;;;;5.75;4.00;;;;;21.51;55.87;101321.28;5089303;27;45643;-79
2022/05/17 01:59:38;;;;;;;;;5.00;5.00;;;;;21.48;56.50;101330.56;5090354;27;45493;-79
2022/05/17 02:02:04;;;;;;;;;7.25;5.75;;;;;21.44;56.60;101318.28;5095403;27;45479;-79
2022/05/17 02:04:30;;;;;;;;;6.75;5.00;;;;;21.45;56.87;101329.00;5086742;27;45484;-79
2022/05/17 02:06:55;;;;;;;;;5.00;5.00;;;;;21.43;56.48;101330.09;5083594;27;45518;-79
2022/05/17 02:09:20;;;;;;;;;4.50;4.50;;;;;21.39;56.83;101326.84;5091313;27;48043;-79
2022/05/17 02:11:46;;;;;;;;;6.00;5.00;;;;;21.35;57.23;101333.50;5091299;27;45467;-78
2022/05/17 02:14:11;;;;;;;;;6.00;4.25;;;;;21.28;56.85;101318.81;5093376;27;45384;-79
2022/05/17 02:16:37;;;;;;;;;8.50;7.75;;;;;21.21;56.69;101318.53;5084018;27;45509;-79
2022/05/17 02:19:04;;;;;;;;;6.75;6.00;;;;;21.25;56.99;101336.19;5095139;27;45628;-79
2022/05/17 02:21:29;;;;;;;;;6.75;5.50;;;;;21.16;57.37;101331.63;5089472;27;45665;-78
2022/05/17 02:23:55;;;;;;;;;5.25;5.25;;;;;21.22;57.09;101360.84;5090607;27;45685;-78
2022/05/17 02:26:20;;;;;;;;;6.50;6.50;;;;;21.12;57.20;101321.22;5090816;27;45426;-78
2022/05/17 02:28:45;;;;;;;;;5.25;5.25;;;;;21.28;57.02;101348.59;5086266;27;46362;-78
2022/05/17 02:31:15;;;;;;;;;6.75;6.75;;;;;21.28;56.82;101359.44;5104286;27;45379;-78
2022/05/17 02:33:41;;;;;;;;;6.75;5.00;;;;;21.30;57.16;101348.47;5093224;27;45592;-79
2022/05/17 02:36:06;;;;;;;;;7.25;5.25;;;;;21.24;56.69;101348.03;5092955;27;45471;-79
2022/05/17 02:38:32;;;;;;;;;4.75;4.75;;;;;21.18;57.02;101345.03;5090697;27;45543;-80
2022/05/17 02:40:57;;;;;;;;;4.75;4.75;;;;;21.31;57.06;101353.75;5102450;27;45374;-80
2022/05/17 02:43:22;;;;;;;;;6.50;5.00;;;;;21.32;57.41;101360.03;5095848;27;45977;-79
2022/05/17 02:45:48;;;;;;;;;6.50;6.50;;;;;21.28;57.45;101364.84;5091963;27;45551;-78
2022/05/17 02:48:14;;;;;;;;;6.25;6.25;;;;;21.25;57.38;101359.72;5085864;27;46218;-78
2022/05/17 02:50:39;;;;;;;;;6.00;6.00;;;;;21.22;57.02;101347.31;5087853;27;45662;-80
2022/05/17 02:53:05;;;;;;;;;6.75;6.75;;;;;21.26;57.25;101351.47;5082588;27;45578;-80
2022/05/17 02:55:31;;;;;;;;;7.75;6.00;;;;;21.23;57.59;101361.72;5084690;27;45496;-80
2022/05/17 02:57:58;;;;;;;;;4.00;4.00;;;;;21.19;57.41;101361.16;5093352;27;46020;-79
2022/05/17 03:00:24;;;;;;;;;8.00;6.50;;;;;21.18;57.36;101347.75;5094763;27;45838;-79
2022/05/17 03:02:50;;;;;;;;;7.25;5.25;;;;;21.18;57.35;101355.84;5095152;27;45417;-80
2022/05/17 03:05:16;;;;;;;;;7.00;5.00;;;;;21.11;57.60;101344.72;5091626;27;45454;-79
2022/05/17 03:07:41;;;;;;;;;5.50;5.50;;;;;21.15;57.43;101362.41;5091286;27;46336;-79
2022/05/17 03:10:08;;;;;;;;;5.50;5.50;;;;;21.13;57.63;101358.13;5088598;27;45507;-79
2022/05/17 03:12:33;;;;;;;;;7.00;7.00;;;;;21.12;57.45;101356.41;5096305;27;45359;-79
2022/05/17 03:15:00;;;;;;;;;5.25;5.25;;;;;21.11;58.10;101352.84;5081392;27;45940;-79
2022/05/17 03:17:25;;;;;;;;;6.75;5.00;;;;;21.07;58.08;101348.72;5081613;27;45464;-79
2022/05/17 03:19:53;;;;;;;;;5.00;5.00;;;;;21.06;58.19;101347.00;5082293;27;45607;-80
2022/05/17 03:22:18;;;;;;;;;5.75;5.75;;;;;20.99;58.04;101346.69;5082410;27;45440;-79
2022/05/17 03:24:44;;;;;;;;;6.00;6.00;;;;;21.02;58.36;101350.97;5078456;27;45631;-79
2022/05/17 03:27:09;;;;;;;;;7.25;7.00;;;;;20.88;58.21;101325.19;5081269;27;45857;-79
2022/05/17 03:29:34;;;;;;;;;5.00;5.00;;;;;20.90;58.25;101330.44;5082258;27;45567;-79
2022/05/17 03:32:00;;;;;;;;;6.00;5.75;;;;;20.92;58.21;101333.84;5082082;27;47211;-79
2022/05/17 03:34:26;;;;;;;;;5.50;5.50;;;;;20.86;58.16;101329.88;5082835;27;45405;-79
2022/05/17 03:36:51;;;;;;;;;7.75;5.00;;;;;20.81;58.16;101329.44;5077818;27;45989;-79
2022/05/17 03:39:16;;;;;;;;;4.25;4.00;;;;;20.85;58.10;101349.78;5081156;27;45449;-78
2022/05/17 03:41:42;;;;;;;;;5.25;5.00;;;;;20.88;58.24;101356.78;5082067;27;45511;-79
2022/05/17 03:44:07;;;;;;;;;6.25;6.25;;;;;20.87;58.59;101341.53;5082508;27;45409;-80
2022/05/17 03:46:33;;;;;;;;;7.25;7.25;;;;;20.83;58.53;101340.97;5098430;27;46400;-80
2022/05/17 03:49:00;;;;;;;;;7.00;5.50;;;;;20.82;58.80;101337.41;5079226;27;45449;-80
2022/05/17 03:51:25;;;;;;;;;6.25;5.25;;;;;20.85;58.27;101341.66;5076003;27;45498;-80
2022/05/17 03:53:51;;;;;;;;;5.25;5.00;;;;;20.78;58.46;101332.38;5091613;27;45468;-80
2022/05/17 03:56:16;;;;;;;;;6.00;6.00;;;;;20.84;58.40;101343.53;5094766;27;45915;-80
2022/05/17 03:58:42;;;;;;;;;7.75;7.00;;;;;20.74;58.78;101337.25;5093263;27;45433;-80
2022/05/17 04:01:08;;;;;;;;;7.00;7.00;;;;;20.77;58.71;101341.53;5094765;27;45490;-80
2022/05/17 04:03:34;;;;;;;;;5.25;5.25;;;;;20.76;58.68;101343.38;5093767;27;45416;-80
2022/05/17 04:05:59;;;;;;;;;8.25;7.25;;;;;20.71;58.88;101344.75;5094326;27;46298;-80
2022/05/17 04:08:24;;;;;;;;;8.25;5.25;;;;;20.69;58.68;101349.47;5102163;27;45497;-80
2022/05/17 04:10:50;;;;;;;;;6.25;5.00;;;;;20.66;58.88;101355.13;5093977;27;45487;-79
2022/05/17 04:13:15;;;;;;;;;7.25;7.00;;;;;20.54;59.18;101325.47;5093683;27;45367;-80
2022/05/17 04:15:41;;;;;;;;;6.00;6.00;;;;;20.58;59.33;101339.59;5091442;27;54552;-80
2022/05/17 04:18:07;;;;;;;;;5.25;5.25;;;;;20.58;59.25;101347.72;5096859;27;45401;-80
2022/05/17 04:20:33;;;;;;;;;6.50;6.50;;;;;20.49;59.16;101337.66;5093448;27;45421;-78
2022/05/17 04:22:58;;;;;;;;;7.00;7.00;;;;;20.53;59.52;101349.94;5094501;27;45461;-78
2022/05/17 04:25:25;;;;;;;;;7.00;6.25;;;;;20.46;59.20;101341.50;5093404;27;46042;-78
2022/05/17 04:27:51;;;;;;;;;5.75;5.75;;;;;20.52;59.53;101353.66;5093765;27;45419;-78
2022/05/17 04:30:17;;;;;;;;;5.50;5.50;;;;;20.49;59.71;101349.34;5096196;27;45365;-78
2022/05/17 04:32:43;;;;;;;;;7.00;7.00;;;;;20.44;59.50;101335.38;5094344;27;45466;-77
2022/05/17 04:35:10;;;;;;;;;8.75;6.50;;;;;20.42;59.49;101340.09;5093787;27;45432;-78
2022/05/17 04:37:36;;;;;;;;;6.00;6.00;;;;;20.46;59.63;101352.31;5092750;27;45889;-78
2022/05/17 04:40:08;;;;;;;;;7.50;7.25;;;;;20.42;59.66;101353.59;5093650;27;45384;-78
2022/05/17 04:42:38;;;;;;;;;5.50;5.50;;;;;20.42;59.51;101359.88;5093946;27;45585;-78
2022/05/17 04:45:06;;;;;;;;;6.25;5.25;;;;;20.36;60.11;101346.88;5095670;27;46318;-80
2022/05/17 04:47:32;;;;;;;;;8.00;7.00;;;;;20.42;59.87;101361.72;5092852;27;45785;-80
2022/05/17 04:49:57;;;;;;;;;9.00;7.25;;;;;20.37;60.10;101356.72;5092994;27;45705;-81
2022/05/17 04:52:23;;;;;;;;;7.00;7.00;;;;;20.33;60.47;101354.41;5093820;27;45523;-78
2022/05/17 04:54:51;;;;;;;;;10.50;7.25;;;;;20.38;60.43;101361.13;5093883;27;46174;-79
2022/05/17 04:57:16;;;;;;;;;7.75;6.25;;;;;20.37;60.19;101366.66;5090853;27;45553;-78
2022/05/17 04:59:42;;;;;;;;;6.75;6.75;;;;;20.37;60.21;101370.25;5093547;27;45819;-80
2022/05/17 05:02:07;;;;;;;;;5.50;5.50;;;;;20.35;60.23;101368.66;5091644;27;45544;-79
2022/05/17 05:04:33;;;;;;;;;7.00;6.00;;;;;20.34;60.27;101366.94;5092674;27;45724;-79
2022/05/17 05:06:58;;;;;;;;;5.50;5.50;;;;;20.28;60.38;101359.38;5092011;27;45622;-79
2022/05/17 05:09:23;;;;;;;;;8.25;7.50;;;;;20.25;60.30;101352.34;5094054;27;45427;-79
2022/05/17 05:11:49;;;;;;;;;11.50;9.25;;;;;20.30;60.35;101351.94;5092122;27;46615;-79
2022/05/17 05:14:14;;;;;;;;;6.75;6.25;;;;;20.30;60.61;101349.25;5092414;27;46159;-79
2022/05/17 05:16:39;;;;;;;;;11.00;7.00;;;;;20.36;60.61;101365.81;5093236;27;46166;-79
2022/05/17 05:19:05;;;;;;;;;6.75;6.75;;;;;20.30;60.56;101365.47;5093475;27;45594;-80
2022/05/17 05:21:30;;;;;;;;;7.00;6.50;;;;;20.42;60.83;101378.81;5093554;27;45365;-80
2022/05/17 05:23:56;;;;;;;;;6.00;6.00;;;;;20.42;60.32;101384.22;5093388;27;47296;-79
2022/05/17 05:26:21;;;;;;;;;8.25;6.75;;;;;20.40;60.66;101388.91;5108465;27;45499;-79
2022/05/17 05:28:47;;;;;;;;;7.75;7.75;;;;;20.43;61.07;101393.19;5092182;27;45459;-79
2022/05/17 05:31:15;;;;;;;;;10.25;8.00;;;;;20.42;61.43;101391.47;5092945;27;45329;-79
2022/05/17 05:33:41;;;;;;;;;6.50;6.50;;;;;20.43;61.46;101396.72;5093660;27;46279;-79
2022/05/17 05:36:07;;;;;;;;;9.25;7.50;;;;;20.40;60.15;101383.47;5093874;27;45472;-79
2022/05/17 05:38:33;;;;;;;;;8.75;6.50;;;;;20.49;60.27;101397.19;5088973;27;45694;-80
2022/05/17 05:40:59;;;;;;;;;6.50;6.50;;;;;20.52;59.80;101392.38;5091921;27;45528;-80
2022/05/17 05:43:25;;;;;;;;;6.25;5.50;;;;;20.51;60.24;101393.34;5093303;27;45601;-80
2022/05/17 05:45:50;;;;;;;;;7.50;7.50;;;;;20.57;59.36;101400.13;5092680;27;45487;-80
2022/05/17 05:48:16;;;;;;;;;10.25;7.50;;;;;20.58;59.80;101399.97;5094395;27;45512;-79
2022/05/17 05:50:41;;;;;;;;;7.25;6.75;;;;;20.54;59.85;101387.69;5092642;27;45381;-80
2022/05/17 05:53:11;;;;;;;;;7.75;6.50;;;;;20.61;59.46;101402.41;5092152;27;46605;-79
2022/05/17 05:55:38;;;;;;;;;9.75;9.75;;;;;20.67;59.48;101408.28;5091168;27;45315;-80
2022/05/17 05:58:04;;;;;;;;;7.75;7.75;;;;;20.60;58.70;101405.25;5092474;27;45444;-79
2022/05/17 06:00:31;;;;;;;;;8.00;7.25;;;;;20.55;58.57;101392.13;5092852;27;45411;-80
2022/05/17 06:02:57;;;;;;;;;9.00;7.25;;;;;20.73;58.83;101421.25;5094611;27;46300;-80
2022/05/17 06:05:23;;;;;;;;;6.50;6.50;;;;;20.76;58.94;101413.72;5092452;27;45402;-80
2022/05/17 06:07:49;;;;;;;;;8.75;7.00;;;;;20.72;58.55;101411.44;5092837;27;47601;-81
2022/05/17 06:10:17;;;;;;;;;6.75;6.75;;;;;20.79;59.11;101418.00;5093106;27;45601;-81
2022/05/17 06:12:42;;;;;;;;;6.75;6.75;;;;;20.77;58.48;101407.31;5092277;27;47414;-81
2022/05/17 06:15:09;;;;;;;;;6.50;6.00;;;;;20.76;59.00;101405.63;5090640;27;45444;-81
2022/05/17 06:17:36;;;;;;;;;10.75;10.75;;;;;20.83;58.21;101414.06;5092794;27;45508;-81
2022/05/17 06:20:01;;;;;;;;;9.00;8.00;;;;;20.84;58.28;101416.59;5092586;27;45409;-80
2022/05/17 06:22:27;;;;;;;;;6.00;6.00;;;;;20.84;59.23;101413.91;5092462;27;46238;-80
2022/05/17 06:24:53;;;;;;;;;8.25;8.00;;;;;20.85;59.42;101417.44;5091406;27;45553;-80
2022/05/17 06:27:18;;;;;;;;;9.00;9.00;;;;;20.88;59.40;101419.03;5094719;27;45485;-79
2022/05/17 06:29:44;;;;;;;;;10.25;8.50;;;;;20.88;58.75;101414.50;5091266;27;45517;-79
2022/05/17 06:32:12;;;;;;;;;9.75;9.75;;;;;20.91;59.47;101414.22;5095695;27;48129;-79
2022/05/17 06:34:38;;;;;;;;;8.75;8.75;;;;;20.98;59.02;101419.94;5092113;27;45574;-78
2022/05/17 06:37:04;;;;;;;;;9.75;7.25;;;;;20.94;58.13;101408.53;5091854;27;45623;-79
2022/05/17 06:39:29;;;;;;;;;7.50;7.50;;;;;20.96;59.11;101409.25;5093328;27;45831;-79
2022/05/17 06:41:55;;;;;;;;;9.00;9.00;;;;;21.03;59.82;101413.13;5093152;27;45599;-85
2022/05/17 06:44:20;;;;;;;;;8.00;8.00;;;;;21.02;59.42;101397.00;5094820;27;45438;-78
2022/05/17 06:46:46;;;;;;;;;7.00;7.00;;;;;21.09;59.48;101405.44;5096122;27;45352;-78
2022/05/17 06:49:12;;;;;;;;;6.75;6.00;;;;;21.13;59.25;101405.00;5095991;27;45269;-79
2022/05/17 06:51:39;;;;;;;;;8.00;8.00;;;;;21.12;59.05;101397.03;5095552;27;45441;-79
2022/05/17 06:54:05;;;;;;;;;11.25;9.00;;;;;21.18;59.30;101405.44;5097342;27;45483;-79
2022/05/17 06:56:30;;;;;;;;;7.75;7.75;;;;;21.19;59.01;101399.06;5094721;27;45389;-79
2022/05/17 06:58:56;;;;;;;;;8.25;8.25;;;;;21.24;58.81;101410.31;5095685;27;45525;-79
2022/05/17 07:01:22;;;;;;;;;7.50;7.50;;;;;21.19;58.70;101398.19;5095085;27;45393;-79
2022/05/17 07:03:50;;;;;;;;;11.75;9.50;;;;;21.23;58.31;101400.47;5079416;27;45508;-79
2022/05/17 07:06:16;;;;;;;;;8.25;7.50;;;;;21.34;58.08;101410.34;5093365;27;45461;-79
2022/05/17 07:08:41;;;;;;;;;7.50;7.50;;;;;21.36;57.50;101413.78;5094357;27;45598;-79
2022/05/17 07:13:52;;;;;;;;;7.00;6.00;;;;;21.41;57.45;101402.56;5093068;27;45381;-79
2022/05/17 07:16:18;;;;;;;;;6.00;6.00;;;;;21.46;57.98;101406.53;5094000;27;45548;-79
2022/05/17 07:18:43;;;;;;;;;7.00;7.00;;;;;21.54;57.49;101408.53;5094950;27;45348;-79
2022/05/17 07:21:12;;;;;;;;;10.00;10.00;;;;;21.59;57.18;101406.25;5095496;27;47337;-79
2022/05/17 07:23:38;;;;;;;;;8.25;6.75;;;;;21.63;57.80;101406.84;5095241;27;45350;-79
2022/05/17 07:26:04;;;;;;;;;12.50;8.25;;;;;21.68;58.22;101408.13;5093681;27;45478;-80
2022/05/17 07:28:30;;;;;;;;;10.00;8.25;;;;;21.68;58.40;101396.44;5094932;27;45373;-80
2022/05/17 07:30:55;;;;;;;;;8.25;8.25;;;;;21.73;56.96;101399.56;5095349;27;45533;-79
2022/05/17 07:33:21;;;;;;;;;9.00;7.75;;;;;21.74;57.60;101392.28;5096832;27;45414;-79
2022/05/17 07:35:47;;;;;;;;;7.00;7.00;;;;;21.83;57.15;101399.56;5095339;27;45386;-79
2022/05/17 07:38:14;;;;;;;;;7.25;7.25;;;;;21.87;57.71;101401.00;5094788;27;45299;-79
2022/05/17 07:40:41;;;;;;;;;7.00;7.00;;;;;21.90;56.95;101412.41;5107318;27;48251;-79
2022/05/17 07:43:07;;;;;;;;;7.50;6.25;;;;;21.95;57.44;101406.53;5095165;27;45414;-77
2022/05/17 07:45:32;;;;;;;;;12.75;9.00;;;;;22.02;57.10;101414.97;5095655;27;45420;-78
2022/05/17 07:47:58;;;;;;;;;8.75;8.50;;;;;22.01;56.94;101402.44;5096006;27;50497;-79
2022/05/17 07:50:23;;;;;;;;;4.50;4.50;;;;;22.07;55.33;101408.09;5094371;27;51947;-84
2022/05/17 07:52:48;;;;;;;;;5.75;5.75;;;;;22.17;55.58;101405.38;5094297;27;45480;-79
2022/05/17 07:55:14;;;;;;;;;5.00;5.00;;;;;22.20;55.30;101404.22;5107607;27;45484;-77
2022/05/17 07:57:39;;;;;;;;;5.25;5.25;;;;;22.26;55.66;101407.25;5095451;27;45468;-78
2022/05/17 08:00:07;;;;;;;;;6.25;5.50;;;;;22.31;54.90;101414.94;5096004;27;46030;-78
2022/05/17 08:02:33;;;;;;;;;7.75;7.75;;;;;22.36;54.75;101409.94;5092784;27;45556;-78
2022/05/17 08:04:59;;;;;;;;;7.00;5.25;;;;;22.35;53.90;101405.53;5094807;27;45337;-78
2022/05/17 08:07:24;;;;;;;;;2.00;2.00;;;;;22.40;53.16;101411.38;5094571;27;45486;-78
2022/05/17 08:09:49;;;;;;;;;5.00;5.00;;;;;22.50;53.05;101403.19;5094263;27;47665;-78
2022/05/17 08:12:15;;;;;;;;;6.50;5.00;;;;;22.55;53.00;101412.59;5096307;27;45430;-78
2022/05/17 08:14:41;;;;;;;;;4.25;4.00;;;;;22.58;53.08;101414.16;5093942;27;45362;-77
2022/05/17 08:17:10;;;;;;;;;5.75;5.75;;;;;22.64;52.34;101408.16;5094215;27;45604;-78
2022/05/17 08:19:37;;;;;;;;;6.00;6.00;;;;;22.67;51.82;101404.28;5094589;27;45536;-78
2022/05/17 08:22:04;;;;;;;;;5.25;4.50;;;;;22.73;51.68;101403.69;5092544;27;45563;-78
2022/05/17 08:27:31;;;;;;;;;4.50;4.50;;;;;22.69;51.88;101391.41;5095062;27;45366;-78
2022/05/17 08:27:37;;;;;;;;;5.25;5.00;;;;;22.81;51.15;101400.22;5096406;27;45349;-78
2022/05/17 08:30:07;;;;;;;;;4.50;4.25;;;;;22.86;50.16;101403.34;5094248;27;47195;-76
2022/05/17 08:35:16;;;;;;;;;6.00;5.00;;;;;22.90;48.68;101400.19;5093441;27;45469;-77
2022/05/17 08:37:41;;;;;;;;;5.00;5.00;;;;;23.00;48.58;101402.03;5094000;27;45310;-77
2022/05/17 08:40:08;;;;;;;;;3.25;3.25;;;;;23.04;47.71;101404.28;5093490;27;62109;-77
2022/05/17 08:42:46;;;;;;;;;5.00;5.00;;;;;23.11;48.09;101404.53;5094485;27;45932;-77
2022/05/17 08:45:17;;;;;;;;;6.00;4.00;;;;;23.14;47.43;101396.09;5095810;27;45425;-76
2022/05/17 08:47:51;;;;;;;;;6.75;5.75;;;;;23.18;47.56;101397.47;5093308;27;45553;-76
2022/05/17 08:50:25;;;;;;;;;4.00;4.00;;;;;23.23;47.23;101389.72;5090967;27;46338;-76
2022/05/17 08:52:53;;;;;;;;;4.00;3.00;;;;;23.27;47.12;101388.41;5091178;27;45513;-76
2022/05/17 08:55:24;;;;;;;;;3.75;3.75;;;;;23.34;46.89;101394.94;5094141;27;45578;-76
2022/05/17 08:57:56;;;;;;;;;4.75;3.75;;;;;23.38;46.05;101390.06;5077907;27;45459;-76
2022/05/17 09:00:31;;;;;;;;;6.00;5.25;;;;;23.45;45.46;101393.88;5091884;27;46183;-76
2022/05/17 09:03:04;;;;;;;;;2.75;2.75;;;;;23.48;44.63;101390.84;5095288;27;45483;-76
2022/05/17 09:05:33;;;;;;;;;5.00;4.00;;;;;23.53;44.25;101388.50;5092871;27;45480;-76
2022/05/17 09:08:17;;;;;;;;;3.25;3.25;;;;;23.58;43.64;101388.06;5093437;27;45390;-77
2022/05/17 09:10:50;;;;;;;;;1.25;0.25;;;;;23.64;41.68;101389.28;5093390;27;46345;-76
2022/05/17 09:13:23;;;;;;;;;2.00;2.00;;;;;23.69;40.92;101384.22;5109657;27;45384;-76
2022/05/17 09:15:50;;;;;;;;;4.00;2.00;;;;;23.73;41.99;101389.22;5110242;27;45322;-77
2022/05/17 09:18:17;;;;;;;;;3.50;3.50;;;;;23.79;42.00;101383.19;5096222;27;45304;-76
2022/05/17 09:20:44;;;;;;;;;5.00;5.00;;;;;23.84;42.52;101382.72;5092718;27;46112;-77
2022/05/17 09:23:10;;;;;;;;;7.25;7.25;;;;;23.93;43.15;101389.06;5093843;27;45462;-77
2022/05/17 09:26:01;;;;;;;;;6.75;6.75;;;;;23.97;43.36;101380.44;5093427;27;45663;-76
2022/05/17 09:28:44;;;;;;;;;7.50;6.00;;;;;24.10;42.00;101381.88;5093307;27;45405;-77
2022/05/17 09:31:17;;;;;;;;;5.75;5.00;;;;;24.15;40.80;101384.97;5092915;27;46248;-77
2022/05/17 09:33:43;;;;;;;;;5.00;5.00;;;;;24.26;40.93;101383.88;5093769;27;45405;-77
2022/05/17 09:36:16;;;;;;;;;2.50;2.50;;;;;24.29;40.96;101375.38;5094962;27;45349;-77
2022/05/17 09:38:42;;;;;;;;;4.50;4.50;;;;;24.33;41.04;101366.72;5093451;27;45628;-77
2022/05/17 09:41:13;;;;;;;;;3.00;3.00;;;;;24.47;40.42;101380.81;5091640;27;45851;-76
2022/05/17 09:43:39;;;;;;;;;3.00;3.00;;;;;24.53;39.32;101377.41;5093406;27;45861;-77
2022/05/17 09:46:12;;;;;;;;;3.75;3.75;;;;;24.61;39.52;101369.31;5093069;27;45361;-77
2022/05/17 09:54:37;;;;;;;;;3.50;3.50;;;;;24.88;39.08;101363.63;5091562;27;45541;-77
2022/05/17 09:57:24;;;;;;;;;2.00;2.00;;;;;24.97;39.05;101366.41;5093664;27;45420;-77
2022/05/17 09:59:54;;;;;;;;;3.00;3.00;;;;;25.04;39.19;101371.03;5092820;27;45527;-77
2022/05/17 10:02:28;;;;;;;;;2.75;1.75;;;;;25.12;38.55;101359.28;5092663;27;47219;-77
2022/05/17 10:04:55;;;;;;;;;2.00;2.00;;;;;25.20;38.65;101362.06;5092590;27;45451;-77
2022/05/17 10:07:25;;;;;;;;;2.25;2.25;;;;;25.24;37.89;101354.41;5105968;27;45293;-77
2022/05/17 10:09:51;;;;;;;;;2.50;2.50;;;;;25.32;38.23;101351.69;5077516;27;45426;-78
2022/05/17 10:12:20;;;;;;;;;3.00;3.00;;;;;25.41;38.81;101355.28;5094895;27;45322;-78
2022/05/17 10:14:52;;;;;;;;;1.25;1.25;;;;;25.49;38.08;101355.28;5093316;27;45488;-78
2022/05/17 10:17:36;;;;;;;;;2.00;2.00;;;;;25.58;37.84;101364.34;5092887;27;45503;-78
2022/05/17 10:20:10;;;;;;;;;2.00;1.00;;;;;25.64;36.71;101358.19;5094415;27;45427;-78
2022/05/17 10:22:44;;;;;;;;;1.50;1.50;;;;;25.66;36.42;101350.69;5094682;27;46951;-78
2022/05/17 10:25:20;;;;;;;;;2.00;2.00;;;;;25.64;34.14;101326.34;5096235;27;45398;-77
2022/05/17 10:27:54;;;;;;;;;1.50;1.50;;;;;25.78;35.75;101340.28;5096581;27;45481;-78
2022/05/17 10:30:26;;;;;;;;;2.00;2.00;;;;;25.83;35.09;101337.91;5094267;27;45345;-78
2022/05/17 10:33:00;;;;;;;;;1.25;1.00;;;;;25.91;35.08;101340.69;5097202;27;45395;-78
2022/05/17 10:35:56;;;;;;;;;1.00;1.00;;;;;25.99;35.49;101339.81;5095761;27;45486;-78
2022/05/17 10:38:28;;;;;;;;;2.50;1.25;;;;;26.05;35.69;101334.53;5096145;27;45537;-78
2022/05/17 10:40:56;;;;;;;;;1.50;1.50;;;;;26.07;34.52;101324.28;5112062;27;45527;-78
2022/05/17 10:43:29;;;;;;;;;1.75;1.75;;;;;26.18;35.71;101325.78;5096298;27;47125;-77
2022/05/17 10:46:06;;;;;;;;;2.75;2.75;;;;;26.24;35.43;101321.50;5080758;27;45378;-77
2022/05/17 10:49:06;;;;;;;;;1.00;1.00;;;;;26.25;35.90;101304.09;5096115;27;45417;-77
2022/05/17 10:51:40;;;;;;;;;3.50;2.00;;;;;26.39;36.68;101316.19;5090051;27;45392;-77
2022/05/17 10:54:13;;;;;;;;;2.00;2.00;;;;;26.47;36.95;101307.94;5096421;27;46708;-77
2022/05/17 10:56:44;;;;;;;;;2.00;2.00;;;;;26.61;36.50;101312.72;5095289;27;45474;-77
2022/05/17 10:59:27;;;;;;;;;3.25;2.25;;;;;26.74;36.47;101306.66;5094301;27;45464;-77
2022/05/17 11:02:04;;;;;;;;;3.25;3.25;;;;;26.87;36.53;101303.38;5095291;27;45528;-78
2022/05/17 11:04:59;;;;;;;;;2.50;2.50;;;;;26.97;36.35;101299.38;5095565;27;45484;-78
2022/05/17 11:07:49;;;;;;;;;2.00;2.00;;;;;27.07;33.87;101299.13;5095447;27;45524;-76
2022/05/17 11:10:24;;;;;;;;;1.25;1.25;;;;;27.15;34.86;101295.47;5095707;27;45552;-78
2022/05/17 11:13:00;;;;;;;;;2.00;2.00;;;;;27.22;34.46;101291.03;5077216;27;45382;-78
2022/05/17 11:15:38;;;;;;;;;3.50;2.00;;;;;27.34;34.53;101295.03;5093904;27;46402;-78
2022/05/17 11:18:32;;;;;;;;;1.50;1.50;;;;;27.32;34.88;101271.63;5095397;27;45316;-78
2022/05/17 11:21:04;;;;;;;;;3.00;3.00;;;;;27.47;35.48;101278.03;5092169;27;45422;-78
2022/05/17 11:23:53;;;;;;;;;4.00;3.00;;;;;27.65;35.12;101283.16;5095751;27;45331;-78
2022/05/17 11:26:50;;;;;;;;;2.00;1.50;;;;;27.73;34.75;101272.16;5094785;27;45300;-77
2022/05/17 11:29:15;;;;;;;;;2.00;2.00;;;;;27.83;33.90;101271.91;5094771;27;45511;-78
2022/05/17 11:32:01;;;;;;;;;2.75;2.75;;;;;27.93;34.74;101272.47;5095105;27;45501;-78
2022/05/17 11:34:30;;;;;;;;;1.50;1.50;;;;;28.03;34.79;101264.84;5094267;27;45695;-78
2022/05/17 11:37:01;;;;;;;;;3.00;3.00;;;;;28.09;32.84;101257.75;5093384;27;45461;-77
2022/05/17 11:39:29;;;;;;;;;3.25;2.00;;;;;28.17;33.04;101267.78;5095879;27;45432;-78
2022/05/17 11:42:09;;;;;;;;;4.50;2.00;;;;;28.23;33.86;101265.09;5096782;27;45451;-78
2022/05/17 11:44:46;;;;;;;;;3.00;3.00;;;;;28.29;34.06;101260.78;5094589;27;45238;-78